Time;durP1;ratioP1;P1;durP2;ratioP2;P2;SDS_P1;SDS_P2;PMS_P1;PMS_P2;Temp;Humidity;BMP_temperature;BMP_pressure;BME280_temperature;BME280_humidity;BME280_pressure;Samples;Min_cycle;Max_cycle;Signal;HPM_P1;HPM_P2
2021/03/31 00:01:11;;;;;;;21.90;14.43;;;;;;;5.59;72.10;101899.63;5045056;28;20244;-67
2021/03/31 00:03:36;;;;;;;24.85;15.20;;;;;;;5.63;71.05;101902.41;5049565;28;20095;-67
2021/03/31 00:06:02;;;;;;;21.02;13.80;;;;;;;5.44;71.09;101898.31;5050345;28;20033;-66
2021/03/31 00:08:27;;;;;;;21.25;15.27;;;;;;;5.45;71.51;101901.81;5016663;28;20044;-66
2021/03/31 00:10:53;;;;;;;20.88;15.50;;;;;;;5.44;72.24;101894.81;5044328;28;20071;-67
2021/03/31 00:13:19;;;;;;;24.73;14.23;;;;;;;5.44;72.52;101900.06;5033233;28;20029;-66
2021/03/31 00:15:45;;;;;;;21.70;14.82;;;;;;;5.54;72.42;101888.16;5030346;28;20076;-67
2021/03/31 00:18:12;;;;;;;22.08;15.05;;;;;;;5.49;71.49;101896.75;5032789;28;20562;-68
2021/03/31 00:20:39;;;;;;;21.85;14.82;;;;;;;5.31;70.96;101896.16;5034402;28;20115;-68
2021/03/31 00:23:09;;;;;;;21.23;13.77;;;;;;;5.16;70.83;101896.56;5037417;28;20512;-68
2021/03/31 00:25:34;;;;;;;21.50;14.88;;;;;;;5.03;71.86;101895.25;5035400;28;20026;-68
2021/03/31 00:28:00;;;;;;;21.45;12.93;;;;;;;4.95;71.88;101884.53;5033455;28;20166;-67
2021/03/31 00:30:26;;;;;;;21.50;14.40;;;;;;;4.81;72.47;101884.06;5044144;28;20035;-66
2021/03/31 00:32:51;;;;;;;23.65;14.35;;;;;;;4.90;73.40;101880.88;5047578;28;20033;-67
2021/03/31 00:35:17;;;;;;;22.48;16.15;;;;;;;5.05;73.48;101886.63;5053629;28;20056;-67
2021/03/31 00:37:42;;;;;;;22.80;15.68;;;;;;;5.26;73.58;101881.19;5047578;28;20033;-67
2021/03/31 00:40:14;;;;;;;21.98;14.50;;;;;;;5.39;71.14;101886.81;5013332;28;20036;-67
2021/03/31 00:42:39;;;;;;;;;;;;;;;5.27;70.97;101882.09;5054554;28;20370;-67
2021/03/31 00:45:06;;;;;;;18.73;13.43;;;;;;;5.04;70.89;101878.72;5053638;28;19927;-67
2021/03/31 00:47:32;;;;;;;22.40;12.70;;;;;;;4.87;71.91;101884.28;5052452;28;20055;-67
2021/03/31 00:49:57;;;;;;;19.80;13.48;;;;;;;4.80;71.96;101871.84;5054459;28;20060;-67
2021/03/31 00:52:22;;;;;;;24.92;15.18;;;;;;;4.69;72.57;101872.34;5058011;28;20029;-67
2021/03/31 00:54:48;;;;;;;22.05;15.15;;;;;;;4.64;72.30;101868.69;5037143;28;20068;-67
2021/03/31 00:57:13;;;;;;;25.00;15.35;;;;;;;4.57;72.97;101864.94;5036339;28;20032;-67
2021/03/31 00:59:39;;;;;;;22.70;14.07;;;;;;;4.55;72.56;101868.34;5019901;28;20080;-67
2021/03/31 01:02:04;;;;;;;18.80;14.07;;;;;;;4.42;72.66;101860.09;5030197;28;20032;-67
2021/03/31 01:04:30;;;;;;;19.98;13.02;;;;;;;4.33;73.17;101860.66;5032977;28;20028;-67
2021/03/31 01:06:55;;;;;;;18.98;13.43;;;;;;;4.33;73.31;101863.25;5054494;28;20028;-66
2021/03/31 01:09:20;;;;;;;21.02;13.65;;;;;;;4.28;73.15;101861.31;5051103;28;20068;-67
2021/03/31 01:12:02;;;;;;;22.58;14.25;;;;;;;4.20;73.43;101854.09;5043142;28;20021;-67
2021/03/31 01:14:39;;;;;;;19.23;14.02;;;;;;;4.26;73.83;101856.03;5014669;28;20808;-66
2021/03/31 01:17:10;;;;;;;24.88;14.68;;;;;;;4.18;73.86;101842.72;5034042;28;20033;-67
2021/03/31 01:20:04;;;;;;;22.70;15.53;;;;;;;4.19;74.38;101838.34;5030071;28;20042;-67
2021/03/31 01:22:51;;;;;;;20.90;14.50;;;;;;;4.23;73.83;101843.75;5033035;28;20060;-67
2021/03/31 01:25:28;;;;;;;19.60;13.60;;;;;;;4.13;73.90;101833.81;5042967;28;20037;-67
2021/03/31 01:28:23;;;;;;;22.65;14.88;;;;;;;4.02;73.84;101835.13;5023634;28;20025;-66
2021/03/31 01:31:17;;;;;;;23.35;14.45;;;;;;;3.95;74.29;101827.09;5023926;28;20024;-66
2021/03/31 01:34:08;;;;;;;20.70;15.55;;;;;;;3.90;73.99;101820.78;5028006;28;20044;-66
2021/03/31 01:36:34;;;;;;;19.98;14.23;;;;;;;3.80;73.70;101823.91;5043401;28;20507;-67
2021/03/31 01:39:03;;;;;;;19.23;13.45;;;;;;;3.76;74.75;101827.25;5032021;28;20033;-67
2021/03/31 01:41:28;;;;;;;21.13;13.40;;;;;;;3.88;75.03;101821.56;5035971;28;20029;-66
2021/03/31 01:43:55;;;;;;;20.00;13.63;;;;;;;4.03;75.18;101824.75;5033358;28;20043;-66
2021/03/31 01:46:31;;;;;;;23.10;15.98;;;;;;;4.21;74.19;101827.13;5033198;28;20029;-66
2021/03/31 01:48:58;;;;;;;26.48;15.02;;;;;;;4.23;73.53;101825.47;5048753;28;20392;-68
2021/03/31 01:51:23;;;;;;;22.63;13.82;;;;;;;4.10;73.02;101824.13;5032688;28;20040;-67
2021/03/31 01:53:49;;;;;;;24.45;14.35;;;;;;;3.97;73.58;101816.72;5038132;28;20033;-66
2021/03/31 01:56:15;;;;;;;23.38;14.60;;;;;;;3.82;73.76;101824.84;5025798;28;20029;-65
2021/03/31 01:58:41;;;;;;;21.83;14.23;;;;;;;3.81;74.19;101821.34;5027188;28;20112;-66
2021/03/31 02:01:07;;;;;;;21.95;14.32;;;;;;;3.82;74.33;101820.53;5050129;28;20397;-66
2021/03/31 02:03:34;;;;;;;21.95;15.05;;;;;;;3.81;73.78;101820.47;5027870;28;20033;-66
2021/03/31 02:05:59;;;;;;;21.02;13.73;;;;;;;3.75;73.58;101815.00;5017370;28;20254;-66
2021/03/31 02:08:25;;;;;;;19.20;13.25;;;;;;;3.66;74.29;101811.22;5028007;28;20512;-68
2021/03/31 02:10:51;;;;;;;21.33;13.68;;;;;;;3.59;73.77;101819.66;5010314;28;542719;-68
2021/03/31 02:13:17;;;;;;;17.73;13.63;;;;;;;3.59;73.75;101814.44;5055216;28;20032;-68
2021/03/31 02:15:42;;;;;;;19.10;12.80;;;;;;;3.52;73.64;101813.31;5030094;28;20029;-66
2021/03/31 02:18:11;;;;;;;23.00;14.02;;;;;;;3.50;74.29;101816.69;5057705;28;20068;-66
2021/03/31 02:20:36;;;;;;;24.80;14.38;;;;;;;3.44;74.13;101817.34;5036180;28;20033;-66
2021/03/31 02:23:02;;;;;;;17.77;12.90;;;;;;;3.40;74.14;101821.53;5034105;28;20082;-66
2021/03/31 02:25:28;;;;;;;19.33;12.23;;;;;;;3.36;73.75;101806.59;5026816;28;20025;-67
2021/03/31 02:27:53;;;;;;;21.00;12.00;;;;;;;3.34;73.84;101811.75;5031553;28;20395;-66
2021/03/31 02:30:22;;;;;;;19.15;12.65;;;;;;;3.30;74.14;101811.59;5029217;28;21577;-66
2021/03/31 02:32:50;;;;;;;21.15;14.65;;;;;;;3.24;74.15;101811.34;5034346;28;20037;-67
2021/03/31 02:35:18;;;;;;;20.80;13.60;;;;;;;3.23;75.21;101804.34;5037081;28;20029;-67
2021/03/31 02:37:45;;;;;;;22.45;15.18;;;;;;;3.27;75.10;101811.47;5029724;28;20139;-67
2021/03/31 02:40:12;;;;;;;21.95;14.38;;;;;;;3.45;75.01;101809.59;5035311;28;20506;-67
2021/03/31 02:42:39;;;;;;;21.67;13.35;;;;;;;3.58;75.36;101807.44;5044312;28;20403;-67
2021/03/31 02:45:05;;;;;;;24.25;15.77;;;;;;;3.71;74.91;101807.06;5028908;28;20095;-67
2021/03/31 02:47:31;;;;;;;23.55;14.65;;;;;;;3.75;73.73;101804.56;5045322;28;20503;-67
2021/03/31 02:49:59;;;;;;;21.48;13.80;;;;;;;3.59;73.51;101804.00;5032774;28;20024;-67
2021/03/31 02:52:24;;;;;;;20.08;13.27;;;;;;;3.53;74.35;101806.38;5034448;28;20107;-66
2021/03/31 02:54:51;;;;;;;21.83;13.80;;;;;;;3.55;74.26;101796.88;5014901;28;20113;-66
2021/03/31 02:57:18;;;;;;;23.77;14.77;;;;;;;3.54;74.37;101806.41;5034370;28;20025;-67
2021/03/31 02:59:44;;;;;;;21.15;14.48;;;;;;;3.57;74.01;101806.53;5030752;28;20057;-66
2021/03/31 03:02:10;;;;;;;19.73;13.05;;;;;;;3.57;73.85;101788.28;5037219;28;20124;-67
2021/03/31 03:04:36;;;;;;;20.25;14.60;;;;;;;3.54;73.65;101790.75;5032831;28;20472;-66
2021/03/31 03:07:02;;;;;;;23.30;14.75;;;;;;;3.47;73.84;101794.88;5029139;28;20125;-67
2021/03/31 03:09:27;;;;;;;23.40;15.30;;;;;;;3.47;74.34;101784.44;5025531;28;20451;-66
2021/03/31 03:11:53;;;;;;;20.65;13.80;;;;;;;3.25;73.32;101782.72;5032689;28;20530;-67
2021/03/31 03:14:19;;;;;;;20.63;14.90;;;;;;;3.18;74.22;101781.59;5026746;28;20031;-66
2021/03/31 03:16:44;;;;;;;21.88;14.20;;;;;;;3.24;74.81;101785.28;5051880;28;20029;-66
2021/03/31 03:19:09;;;;;;;20.63;14.82;;;;;;;3.32;74.80;101779.53;5023324;28;20052;-67
2021/03/31 03:21:37;;;;;;;25.25;15.57;;;;;;;3.36;74.38;101774.44;5049973;28;20033;-68
2021/03/31 03:24:03;;;;;;;25.88;16.35;;;;;;;3.33;74.45;101786.50;5045500;28;20388;-66
2021/03/31 03:26:28;;;;;;;25.13;15.38;;;;;;;3.32;74.42;101778.63;5038404;28;20029;-66
2021/03/31 03:28:54;;;;;;;23.30;16.02;;;;;;;3.21;74.40;101784.31;5030646;28;20025;-66
2021/03/31 03:31:19;;;;;;;21.65;15.32;;;;;;;3.06;74.38;101779.38;5033429;28;20041;-67
2021/03/31 03:33:45;;;;;;;22.48;15.40;;;;;;;3.00;74.39;101779.13;5032501;28;20159;-66
2021/03/31 03:36:12;;;;;;;24.48;14.50;;;;;;;2.96;75.36;101772.03;5033738;28;20017;-67
2021/03/31 03:38:37;;;;;;;22.85;15.80;;;;;;;3.04;75.30;101780.16;5051573;28;20178;-67
2021/03/31 03:41:05;;;;;;;24.75;15.63;;;;;;;3.11;75.47;101770.84;5028173;28;20503;-66
2021/03/31 03:43:30;;;;;;;22.33;15.52;;;;;;;3.17;74.58;101778.94;5045663;28;20484;-68
2021/03/31 03:45:58;;;;;;;23.23;15.65;;;;;;;3.16;74.65;101772.81;5030216;28;20037;-68
2021/03/31 03:48:23;;;;;;;24.17;15.85;;;;;;;3.24;74.45;101777.44;5032214;28;20036;-66
2021/03/31 03:50:48;;;;;;;28.48;17.50;;;;;;;3.27;74.52;101761.94;5027819;28;20025;-66
2021/03/31 03:53:14;;;;;;;22.20;14.85;;;;;;;3.06;73.92;101770.66;5029951;28;20083;-67
2021/03/31 03:55:39;;;;;;;23.38;15.98;;;;;;;2.82;74.09;101761.94;5030092;28;20033;-66
2021/03/31 03:58:07;;;;;;;25.67;16.08;;;;;;;2.83;75.08;101768.03;5029108;28;20524;-66
2021/03/31 04:00:32;;;;;;;24.73;15.98;;;;;;;2.88;74.91;101758.69;5036723;28;20027;-68
2021/03/31 04:02:58;;;;;;;26.33;15.15;;;;;;;2.86;75.00;101762.94;5029707;28;20115;-66
2021/03/31 04:05:24;;;;;;;24.95;16.48;;;;;;;2.89;74.96;101765.69;5039399;28;20025;-66
2021/03/31 04:07:49;;;;;;;20.52;14.30;;;;;;;2.79;74.79;101751.41;5025830;28;20025;-66
2021/03/31 04:10:16;;;;;;;24.95;15.43;;;;;;;2.73;75.31;101755.47;5038614;28;20024;-66
2021/03/31 04:12:41;;;;;;;20.77;14.95;;;;;;;2.67;75.11;101751.78;5026406;28;20028;-67
2021/03/31 04:15:08;;;;;;;20.25;14.55;;;;;;;2.71;74.91;101757.13;5043887;28;20021;-68
2021/03/31 04:17:39;;;;;;;22.38;15.23;;;;;;;2.71;75.56;101763.22;5022336;28;20400;-66
2021/03/31 04:20:07;;;;;;;23.50;14.88;;;;;;;2.63;75.37;101755.09;5041466;28;20024;-66
2021/03/31 04:22:32;;;;;;;23.63;15.13;;;;;;;2.56;74.51;101763.47;5030867;28;20021;-67
2021/03/31 04:24:58;;;;;;;26.35;15.48;;;;;;;2.39;75.08;101761.06;5029614;28;20021;-66
2021/03/31 04:27:26;;;;;;;20.52;14.02;;;;;;;2.39;75.39;101750.63;5029418;28;20048;-67
2021/03/31 04:29:51;;;;;;;25.67;15.00;;;;;;;2.40;75.96;101756.75;5032694;28;20480;-66
2021/03/31 04:32:18;;;;;;;28.45;16.80;;;;;;;2.51;76.37;101751.97;5014328;28;20164;-67
2021/03/31 04:34:44;;;;;;;25.10;15.27;;;;;;;2.54;76.58;101750.38;5033762;28;20029;-66
2021/03/31 04:37:09;;;;;;;25.48;16.55;;;;;;;2.69;76.04;101751.84;5031102;28;20164;-67
2021/03/31 04:39:37;;;;;;;21.55;15.27;;;;;;;2.78;75.61;101754.84;5047380;28;20040;-68
2021/03/31 04:42:03;;;;;;;23.77;15.02;;;;;;;2.83;75.96;101747.19;5037137;28;20029;-68
2021/03/31 04:44:28;;;;;;;24.77;15.85;;;;;;;2.90;75.25;101746.59;5011964;28;20117;-67
2021/03/31 04:46:54;;;;;;;24.95;15.63;;;;;;;2.85;75.50;101739.44;5051752;28;20119;-68
2021/03/31 04:49:19;;;;;;;23.48;14.52;;;;;;;2.88;74.93;101744.78;5048582;28;20111;-68
2021/03/31 04:51:44;;;;;;;22.10;13.98;;;;;;;2.73;74.19;101751.13;5046548;28;20124;-68
2021/03/31 04:54:10;;;;;;;21.13;14.27;;;;;;;2.57;74.72;101739.22;5049611;28;20064;-68
2021/03/31 04:56:35;;;;;;;22.88;14.07;;;;;;;2.50;74.65;101750.22;5026527;28;20068;-66
2021/03/31 04:59:00;;;;;;;21.42;14.10;;;;;;;2.42;75.04;101745.56;5026064;28;20025;-66
2021/03/31 05:01:25;;;;;;;18.75;14.52;;;;;;;2.38;75.57;101743.66;5045913;28;20025;-66
2021/03/31 05:03:51;;;;;;;20.13;14.70;;;;;;;2.43;75.42;101752.53;5050046;28;20026;-66
2021/03/31 05:06:16;;;;;;;28.15;15.50;;;;;;;2.39;75.25;101752.34;5054789;28;20373;-67
2021/03/31 05:08:41;;;;;;;19.67;13.50;;;;;;;2.37;75.05;101752.28;5053446;28;20079;-66
2021/03/31 05:11:07;;;;;;;23.42;14.75;;;;;;;2.38;75.67;101754.06;5054457;28;20488;-67
2021/03/31 05:13:32;;;;;;;22.05;14.32;;;;;;;2.49;75.59;101754.50;5035279;28;20024;-67
2021/03/31 05:15:57;;;;;;;21.95;13.68;;;;;;;2.54;74.87;101752.97;5049674;28;20455;-66
2021/03/31 05:18:22;;;;;;;22.45;14.20;;;;;;;2.52;74.49;101749.44;5034488;28;20065;-66
2021/03/31 05:20:48;;;;;;;22.50;13.90;;;;;;;2.55;74.54;101748.66;5053853;28;20047;-67
2021/03/31 05:23:13;;;;;;;20.50;14.73;;;;;;;2.62;74.50;101745.50;5053868;28;20029;-66
2021/03/31 05:25:39;;;;;;;23.77;15.25;;;;;;;2.64;74.79;101741.22;5016496;28;20061;-66
2021/03/31 05:28:05;;;;;;;23.85;15.32;;;;;;;2.67;75.43;101736.16;5051507;28;20080;-67
2021/03/31 05:30:31;;;;;;;25.98;14.10;;;;;;;2.75;75.07;101739.06;5053875;28;20039;-67
2021/03/31 05:32:56;;;;;;;20.48;14.05;;;;;;;2.84;75.32;101737.66;5033103;28;20033;-66
2021/03/31 05:35:21;;;;;;;25.52;14.73;;;;;;;2.94;74.92;101742.41;5036104;28;20032;-67
2021/03/31 05:37:47;;;;;;;19.95;14.48;;;;;;;3.02;74.77;101729.66;5053654;28;20029;-67
2021/03/31 05:40:12;;;;;;;21.70;14.43;;;;;;;3.12;74.69;101733.53;5035757;28;20480;-67
2021/03/31 05:42:38;;;;;;;20.52;13.63;;;;;;;3.32;74.35;101726.47;5035552;28;20370;-66
2021/03/31 05:45:08;;;;;;;20.58;13.80;;;;;;;3.44;73.63;101732.13;5050777;28;20028;-66
2021/03/31 05:47:38;;;;;;;20.98;14.43;;;;;;;3.63;73.71;101727.59;5035706;28;20037;-67
2021/03/31 05:50:06;;;;;;;21.90;14.40;;;;;;;3.89;73.84;101730.28;5035764;28;20480;-66
2021/03/31 05:52:32;;;;;;;20.70;13.52;;;;;;;4.19;73.91;101724.34;5031852;28;20024;-67
2021/03/31 05:55:01;;;;;;;18.50;14.45;;;;;;;5.00;73.09;101732.19;5035661;28;20396;-67
2021/03/31 05:57:27;;;;;;;21.48;14.88;;;;;;;6.21;69.95;101723.38;5036302;28;20106;-66
2021/03/31 05:59:53;;;;;;;20.50;15.40;;;;;;;7.16;67.09;101719.47;5035105;28;20036;-67
2021/03/31 06:02:18;;;;;;;23.13;14.38;;;;;;;7.90;63.55;101725.34;5035465;28;20036;-67
2021/03/31 06:04:44;;;;;;;19.60;13.60;;;;;;;8.96;60.63;101728.88;5035331;28;20495;-67
2021/03/31 06:07:10;;;;;;;16.67;11.40;;;;;;;9.78;58.28;101720.25;5032312;28;20113;-67
2021/03/31 06:10:14;;;;;;;20.45;12.65;;;;;;;10.22;56.75;101716.31;5031736;28;20035;-68
2021/03/31 06:12:46;;;;;;;21.33;13.20;;;;;;;10.78;54.94;101716.78;5048236;28;20079;-67
2021/03/31 06:15:27;;;;;;;18.10;12.90;;;;;;;11.75;52.16;101717.22;5047165;28;20029;-67
2021/03/31 06:17:55;;;;;;;18.65;12.40;;;;;;;12.30;51.33;101727.06;5051361;28;20043;-67
2021/03/31 06:20:43;;;;;;;16.88;12.07;;;;;;;13.13;50.22;101719.00;5051502;28;20036;-68
2021/03/31 06:23:47;;;;;;;18.90;13.73;;;;;;;13.91;49.53;101712.50;5026217;28;20438;-67
2021/03/31 06:26:17;;;;;;;15.75;12.30;;;;;;;15.32;45.78;101712.13;5034649;28;20037;-68
2021/03/31 06:28:43;;;;;;;16.55;13.73;;;;;;;16.07;45.24;101716.47;5035063;28;20388;-67
2021/03/31 06:31:14;;;;;;;20.23;14.82;;;;;;;16.56;44.06;101709.44;5034200;28;20468;-68
2021/03/31 06:33:42;;;;;;;16.20;13.55;;;;;;;17.04;42.65;101705.88;5046660;28;20503;-67
2021/03/31 06:36:09;;;;;;;20.70;13.95;;;;;;;16.71;42.10;101708.28;5035042;28;20476;-67
2021/03/31 06:38:46;;;;;;;15.75;12.60;;;;;;;16.46;43.60;101708.72;5046749;28;20507;-68
2021/03/31 06:41:28;;;;;;;16.23;12.75;;;;;;;16.74;42.86;101708.22;5028297;28;20037;-70
2021/03/31 06:44:06;;;;;;;15.65;12.80;;;;;;;17.43;41.70;101701.56;5052014;28;20086;-69
2021/03/31 06:46:44;;;;;;;13.05;10.93;;;;;;;18.31;40.33;101700.47;5035783;28;20039;-69
2021/03/31 06:49:09;;;;;;;13.48;10.77;;;;;;;19.01;39.71;101689.72;5028109;28;20472;-69
2021/03/31 06:51:35;;;;;;;14.50;11.90;;;;;;;19.66;37.38;101697.63;5017847;28;20063;-69
2021/03/31 06:54:17;;;;;;;34.38;22.02;;;;;;;20.81;35.59;101688.47;5034545;28;20107;-70
2021/03/31 06:56:44;;;;;;;34.50;26.42;;;;;;;21.98;33.93;101688.59;5052211;28;20024;-70
2021/03/31 06:59:10;;;;;;;16.30;12.43;;;;;;;23.09;32.11;101684.72;5029263;28;20037;-70
2021/03/31 07:01:36;;;;;;;11.38;10.27;;;;;;;24.13;30.12;101688.81;5034153;28;20028;-69
2021/03/31 07:04:04;;;;;;;12.77;9.55;;;;;;;24.66;29.71;101681.63;5034565;28;20094;-69
2021/03/31 07:06:29;;;;;;;13.07;10.82;;;;;;;24.51;30.86;101680.56;5034316;28;20053;-69
2021/03/31 07:08:55;;;;;;;12.25;10.52;;;;;;;23.58;29.42;101681.56;5034299;28;20035;-69
2021/03/31 07:11:39;;;;;;;12.98;10.45;;;;;;;22.98;31.76;101671.78;5033903;28;20078;-69
2021/03/31 07:14:05;;;;;;;20.35;11.18;;;;;;;22.75;32.25;101672.81;5033714;28;20061;-69
2021/03/31 07:16:31;;;;;;;11.75;10.55;;;;;;;23.90;30.94;101670.16;5031811;28;20059;-69
2021/03/31 07:18:57;;;;;;;12.60;10.25;;;;;;;24.54;30.11;101658.00;5033874;28;20075;-70
2021/03/31 07:21:24;;;;;;;14.93;10.20;;;;;;;24.67;28.99;101659.06;5033810;28;20017;-70
2021/03/31 07:23:50;;;;;;;11.20;8.48;;;;;;;26.35;27.97;101656.94;5034015;28;20036;-70
2021/03/31 07:26:16;;;;;;;10.30;8.70;;;;;;;27.79;26.49;101658.78;5033934;28;20102;-70
2021/03/31 07:28:43;;;;;;;11.60;10.38;;;;;;;27.44;26.63;101659.25;5033456;28;20096;-70
2021/03/31 07:31:10;;;;;;;10.50;8.77;;;;;;;27.74;25.58;101653.66;5032576;28;20031;-69
2021/03/31 07:33:42;;;;;;;11.75;8.63;;;;;;;28.39;25.67;101658.41;5034095;28;20028;-70
2021/03/31 07:36:10;;;;;;;8.77;7.93;;;;;;;29.03;23.83;101652.09;5033875;28;20028;-70
2021/03/31 07:38:36;;;;;;;8.35;7.65;;;;;;;29.86;23.48;101653.34;5033520;28;20500;-69
2021/03/31 07:41:01;;;;;;;9.85;8.85;;;;;;;29.88;23.60;101652.25;5033705;28;20035;-70
2021/03/31 07:43:37;;;;;;;7.97;7.00;;;;;;;30.58;22.81;101651.47;5033444;28;20028;-70
2021/03/31 07:46:05;;;;;;;10.10;8.77;;;;;;;30.30;23.63;101651.78;5010911;28;20120;-69
2021/03/31 07:48:31;;;;;;;10.80;9.40;;;;;;;28.10;25.15;101659.41;5030104;28;20075;-69
2021/03/31 07:50:57;;;;;;;11.95;9.63;;;;;;;26.46;27.75;101650.88;5033559;28;20472;-69
2021/03/31 07:53:23;;;;;;;13.70;9.38;;;;;;;25.58;29.06;101644.25;5032566;28;20021;-70
2021/03/31 07:55:50;;;;;;;12.10;9.65;;;;;;;25.43;29.23;101645.09;5051569;28;20037;-69
2021/03/31 07:58:16;;;;;;;11.55;9.82;;;;;;;25.58;29.46;101643.41;5033250;28;20025;-69
2021/03/31 08:00:47;;;;;;;9.68;8.68;;;;;;;26.70;27.67;101644.88;5051059;28;20021;-69
2021/03/31 08:03:14;;;;;;;9.40;8.02;;;;;;;29.15;24.73;101635.88;5049864;28;20087;-70
2021/03/31 08:06:02;;;;;;;11.63;9.27;;;;;;;28.74;25.11;101646.03;5049985;28;20044;-70
2021/03/31 08:08:27;;;;;;;13.73;8.75;;;;;;;28.01;26.98;101644.63;5032943;28;20021;-68
2021/03/31 08:10:53;;;;;;;7.88;7.10;;;;;;;29.41;26.38;101638.53;5050768;28;20499;-68
2021/03/31 08:13:38;;;;;;;8.80;6.38;;;;;;;32.39;22.85;101644.81;5050949;28;20039;-70
2021/03/31 08:16:33;;;;;;;7.57;6.68;;;;;;;34.20;20.25;101638.69;5038290;28;20036;-70
2021/03/31 08:19:00;;;;;;;9.43;8.40;;;;;;;33.46;20.49;101633.59;5013787;28;20041;-70
2021/03/31 08:21:28;;;;;;;9.07;7.68;;;;;;;32.56;21.22;101635.19;5032989;28;20025;-71
2021/03/31 08:23:58;;;;;;;9.85;8.85;;;;;;;30.62;22.88;101627.56;5034751;28;20021;-70
2021/03/31 08:26:35;;;;;;;9.25;8.35;;;;;;;30.09;23.90;101627.97;5040222;28;20117;-70
2021/03/31 08:29:07;;;;;;;8.30;7.40;;;;;;;29.89;23.88;101632.22;5046360;28;20029;-70
2021/03/31 08:31:38;;;;;;;10.38;8.75;;;;;;;30.09;23.64;101633.41;5031593;28;20013;-70
2021/03/31 08:34:04;;;;;;;10.40;8.57;;;;;;;29.41;23.88;101633.94;5033229;28;20511;-70
2021/03/31 08:36:29;;;;;;;9.30;8.25;;;;;;;30.35;24.13;101638.69;5051119;28;20068;-70
2021/03/31 08:38:57;;;;;;;9.07;8.18;;;;;;;31.53;21.81;101627.50;5047229;28;20078;-70
2021/03/31 08:41:24;;;;;;;9.52;8.60;;;;;;;31.07;21.32;101624.88;5032193;28;20057;-70
2021/03/31 08:43:50;;;;;;;8.68;7.55;;;;;;;31.42;21.41;101631.16;5020648;28;20381;-70
2021/03/31 08:46:29;;;;;;;11.75;8.48;;;;;;;31.22;20.58;101622.75;5054882;28;20490;-70
2021/03/31 08:48:54;;;;;;;10.02;8.30;;;;;;;31.83;20.41;101627.75;5036530;28;20480;-69
2021/03/31 08:51:20;;;;;;;10.77;7.95;;;;;;;32.26;19.97;101628.66;5054565;28;20021;-68
2021/03/31 08:53:46;;;;;;;10.88;8.00;;;;;;;31.94;21.33;101618.69;5036568;28;20072;-69
2021/03/31 08:56:22;;;;;;;9.60;8.02;;;;;;;32.24;20.32;101623.34;5053914;28;20115;-69
2021/03/31 08:58:52;;;;;;;11.55;9.07;;;;;;;32.28;20.15;101623.06;5039419;28;20499;-69
2021/03/31 09:01:28;;;;;;;8.43;6.72;;;;;;;33.27;19.81;101617.03;5019823;28;20025;-70
2021/03/31 09:04:19;;;;;;;11.52;8.05;;;;;;;33.41;18.94;101618.47;5053252;28;20029;-71
2021/03/31 09:06:45;;;;;;;9.75;8.65;;;;;;;32.16;19.80;101616.81;5054402;28;20391;-71
2021/03/31 09:09:10;;;;;;;9.65;8.13;;;;;;;32.39;20.15;101610.22;5033270;28;20050;-69
2021/03/31 09:11:35;;;;;;;10.65;7.35;;;;;;;33.26;19.10;101600.78;5054041;28;20036;-68
2021/03/31 09:14:22;;;;;;;9.68;8.15;;;;;;;33.56;18.36;101598.94;5035577;28;20428;-70
2021/03/31 09:17:01;;;;;;;11.25;9.60;;;;;;;33.29;19.33;101597.75;5054154;28;20031;-69
2021/03/31 09:19:28;;;;;;;;;;;;;;;32.96;20.42;101597.97;5033091;28;20459;-71
2021/03/31 09:21:53;;;;;;;13.93;9.18;;;;;;;33.08;19.45;101589.69;5035836;28;19925;-70
2021/03/31 09:24:28;;;;;;;10.60;9.07;;;;;;;33.60;18.74;101585.84;5031334;28;20079;-71
2021/03/31 09:27:13;;;;;;;17.45;8.88;;;;;;;33.64;19.13;101581.84;5036630;28;20025;-69
2021/03/31 09:29:42;;;;;;;13.52;8.35;;;;;;;33.73;18.88;101580.09;5028348;28;20420;-70
2021/03/31 09:32:11;;;;;;;13.75;9.15;;;;;;;33.69;18.27;101575.91;5030630;28;20021;-69
2021/03/31 09:34:36;;;;;;;9.88;8.75;;;;;;;33.49;18.85;101570.44;5036322;28;20036;-69
2021/03/31 09:37:05;;;;;;;11.15;8.50;;;;;;;33.60;18.81;101570.31;5053730;28;20021;-69
2021/03/31 09:39:40;;;;;;;13.95;8.43;;;;;;;33.84;19.23;101568.97;5049853;28;20071;-69
2021/03/31 09:42:05;;;;;;;10.27;8.38;;;;;;;36.73;17.04;101570.38;5053753;28;20107;-69
2021/03/31 09:44:32;;;;;;;11.52;8.40;;;;;;;36.07;17.04;101563.50;5035791;28;20103;-69
2021/03/31 09:46:58;;;;;;;13.82;8.90;;;;;;;35.66;17.17;101557.69;5035763;28;20029;-69
2021/03/31 09:49:24;;;;;;;15.60;9.07;;;;;;;35.29;18.78;101552.25;5030197;28;20033;-69
2021/03/31 09:51:49;;;;;;;7.75;6.57;;;;;;;35.93;17.39;101559.47;5052978;28;20171;-70
2021/03/31 09:54:14;;;;;;;10.93;8.95;;;;;;;36.25;17.03;101561.72;5053383;28;20029;-69
2021/03/31 09:56:40;;;;;;;10.88;8.63;;;;;;;36.27;17.48;101554.22;5035850;28;20037;-69
2021/03/31 09:59:05;;;;;;;9.15;8.20;;;;;;;36.50;17.07;101557.22;5035199;28;20412;-69
2021/03/31 10:01:31;;;;;;;10.43;8.38;;;;;;;36.71;16.24;101544.97;5019040;28;20119;-70
2021/03/31 10:03:57;;;;;;;12.52;9.20;;;;;;;36.07;17.39;101543.41;5035104;28;20063;-70
2021/03/31 10:06:24;;;;;;;11.68;8.60;;;;;;;36.52;16.65;101541.44;5045817;28;20078;-69
2021/03/31 10:08:50;;;;;;;19.38;10.73;;;;;;;36.94;16.63;101539.69;5052997;28;20024;-69
2021/03/31 10:11:26;;;;;;;9.30;8.15;;;;;;;37.22;16.03;101542.19;5026960;28;20103;-70
2021/03/31 10:13:51;;;;;;;10.73;8.20;;;;;;;36.81;15.84;101528.34;5052853;28;20043;-69
2021/03/31 10:16:17;;;;;;;14.13;8.45;;;;;;;37.23;15.97;101532.03;5053272;28;20439;-69
2021/03/31 10:18:42;;;;;;;13.45;9.00;;;;;;;36.33;16.41;101531.56;5047627;28;20021;-69
2021/03/31 10:21:07;;;;;;;11.60;7.20;;;;;;;37.15;15.75;101524.63;5034561;28;20028;-69
2021/03/31 10:23:37;;;;;;;8.57;7.72;;;;;;;38.05;14.31;101524.75;5021261;28;20029;-68
2021/03/31 10:26:17;;;;;;;15.57;8.05;;;;;;;38.10;14.49;101515.94;5049770;28;20047;-70
2021/03/31 10:28:43;;;;;;;7.28;5.82;;;;;;;40.13;13.35;101525.22;5029633;28;20029;-71
2021/03/31 10:31:30;;;;;;;6.75;6.07;;;;;;;41.37;12.20;101525.41;5034814;28;20025;-70
2021/03/31 10:33:56;;;;;;;7.65;6.82;;;;;;;40.69;12.96;101518.31;5041292;28;20032;-71
2021/03/31 10:50:08;;;;;;;7.68;6.97;;;;;;;39.48;11.80;101507.25;5029613;28;20033;-69
2021/03/31 10:52:44;;;;;;;7.97;7.20;;;;;;;39.13;12.76;101493.06;5034227;28;20025;-71
2021/03/31 10:55:10;;;;;;;7.50;6.80;;;;;;;38.65;13.32;101483.06;5023965;28;20025;-69
2021/03/31 10:57:35;;;;;;;7.60;5.60;;;;;;;38.11;11.77;101484.66;5051911;28;20036;-69
2021/03/31 11:00:00;;;;;;;8.37;5.47;;;;;;;38.06;12.74;101481.56;5052224;28;20037;-69
2021/03/31 11:02:25;;;;;;;6.75;6.15;;;;;;;38.63;12.34;101479.59;5051282;28;20931;-69
2021/03/31 11:04:51;;;;;;;7.87;7.17;;;;;;;38.33;12.26;101487.66;5045872;28;20472;-68
2021/03/31 11:07:17;;;;;;;8.47;6.57;;;;;;;37.79;12.37;101473.56;5048272;28;20333;-69
2021/03/31 11:09:43;;;;;;;6.57;5.97;;;;;;;37.69;12.15;101468.25;5034382;28;20501;-69
2021/03/31 11:12:09;;;;;;;6.18;5.65;;;;;;;38.52;12.15;101463.47;5051213;28;20158;-71
2021/03/31 11:14:35;;;;;;;7.53;5.97;;;;;;;38.78;11.90;101467.81;5045741;28;20117;-70
2021/03/31 11:17:04;;;;;;;7.00;6.03;;;;;;;38.35;11.73;101458.94;5034252;28;20514;-70
2021/03/31 11:19:47;;;;;;;6.82;6.10;;;;;;;38.46;12.14;101456.78;5034350;28;20076;-70
2021/03/31 11:27:40;;;;;;;6.40;5.65;;;;;;;38.25;12.24;101452.78;5036709;28;20105;-70
2021/03/31 11:30:09;;;;;;;6.40;5.80;;;;;;;38.33;11.92;101432.56;5049964;28;20029;-70
2021/03/31 11:32:35;;;;;;;6.82;5.68;;;;;;;38.11;11.37;101435.09;5051331;28;20380;-70
2021/03/31 11:35:00;;;;;;;6.55;5.32;;;;;;;37.97;11.70;101423.78;5038056;28;20029;-70
2021/03/31 11:37:26;;;;;;;4.78;3.90;;;;;;;38.33;11.04;101421.56;5051689;28;20028;-70
2021/03/31 11:39:51;;;;;;;5.20;4.43;;;;;;;39.34;10.64;101428.09;5051485;28;20430;-70
2021/03/31 11:42:17;;;;;;;4.20;3.90;;;;;;;39.05;10.42;101425.03;5033343;28;20334;-70
2021/03/31 11:44:42;;;;;;;6.50;4.53;;;;;;;38.96;10.75;101428.91;5033828;28;20515;-70